Time;durP1;ratioP1;P1;durP2;ratioP2;P2;SDS_P1;SDS_P2;PMS_P1;PMS_P2;Temp;Humidity;BMP_temperature;BMP_pressure;BME280_temperature;BME280_humidity;BME280_pressure;Samples;Min_cycle;Max_cycle;Signal;HPM_P1;HPM_P2
2022/01/31 00:00:16;;;;;;;21.85;3.53;;;;;;;5.56;100.00;101202.88;5069871;28;20051;-32
2022/01/31 00:02:46;;;;;;;31.45;5.45;;;;;;;5.48;100.00;101192.25;5071255;28;20048;-33
2022/01/31 00:05:14;;;;;;;27.98;3.90;;;;;;;5.40;100.00;101182.47;5069861;28;20041;-37
2022/01/31 00:07:42;;;;;;;18.17;3.35;;;;;;;5.32;100.00;101173.78;5071097;28;20128;-31
2022/01/31 00:10:13;;;;;;;17.73;3.65;;;;;;;5.25;100.00;101164.84;5071109;28;20383;-35
2022/01/31 00:12:53;;;;;;;21.80;3.22;;;;;;;5.12;100.00;101158.59;5060429;28;20051;-42
2022/01/31 00:15:21;;;;;;;22.55;3.42;;;;;;;5.07;100.00;101146.63;5070859;28;20493;-38
2022/01/31 00:17:48;;;;;;;20.88;3.28;;;;;;;5.06;100.00;101139.41;5070746;28;20067;-35
2022/01/31 00:20:16;;;;;;;20.48;2.65;;;;;;;5.01;100.00;101126.34;5070325;28;20139;-41
2022/01/31 00:22:44;;;;;;;23.75;3.28;;;;;;;5.00;100.00;101105.31;5070733;28;20581;-36
2022/01/31 00:25:13;;;;;;;17.77;3.47;;;;;;;5.05;100.00;101102.63;5070858;28;20470;-33
2022/01/31 00:27:41;;;;;;;25.13;3.70;;;;;;;5.09;100.00;101091.88;5069893;28;20063;-36
2022/01/31 00:30:10;;;;;;;23.80;3.30;;;;;;;5.14;100.00;101078.13;5058434;28;20127;-38
2022/01/31 00:32:38;;;;;;;29.92;4.07;;;;;;;5.18;100.00;101079.28;5070776;28;20048;-34
2022/01/31 00:35:09;;;;;;;31.35;3.60;;;;;;;5.22;100.00;101063.81;5068536;28;20048;-37
2022/01/31 00:37:37;;;;;;;36.10;4.38;;;;;;;5.32;100.00;101052.03;5070633;28;20048;-39
2022/01/31 00:40:08;;;;;;;28.67;4.53;;;;;;;5.36;100.00;101047.66;5069827;28;20036;-39
2022/01/31 00:42:37;;;;;;;29.73;4.35;;;;;;;5.40;100.00;101024.72;5070613;28;20080;-41
2022/01/31 00:45:17;;;;;;;32.03;4.25;;;;;;;5.45;100.00;101018.41;5069902;28;20056;-35
2022/01/31 00:47:48;;;;;;;36.92;3.90;;;;;;;5.47;100.00;101003.22;5059572;28;20112;-37
2022/01/31 00:50:18;;;;;;;29.85;3.63;;;;;;;5.51;100.00;100984.16;5069712;28;20535;-34
2022/01/31 00:52:46;;;;;;;31.95;4.03;;;;;;;5.55;100.00;100965.94;5071023;28;20080;-34
2022/01/31 00:55:15;;;;;;;29.50;3.63;;;;;;;5.59;100.00;100946.88;5067963;28;20053;-39
2022/01/31 00:57:45;;;;;;;30.52;3.60;;;;;;;5.62;100.00;100958.22;5068472;28;20504;-39
2022/01/31 01:00:15;;;;;;;30.42;4.15;;;;;;;5.64;100.00;100939.44;5069732;28;20048;-34
2022/01/31 01:02:43;;;;;;;29.77;4.75;;;;;;;5.73;100.00;100925.94;5066146;28;20055;-36
2022/01/31 01:05:11;;;;;;;26.90;4.50;;;;;;;5.80;100.00;100916.28;5070269;28;20052;-37
2022/01/31 01:07:39;;;;;;;27.20;3.60;;;;;;;5.86;100.00;100906.94;5070058;28;20036;-38
2022/01/31 01:10:08;;;;;;;30.90;4.13;;;;;;;5.92;100.00;100912.53;5068996;28;20059;-32
2022/01/31 01:12:35;;;;;;;28.05;3.70;;;;;;;5.94;100.00;100908.41;5072505;28;20052;-40
2022/01/31 01:15:05;;;;;;;32.55;4.82;;;;;;;5.99;100.00;100902.91;5074010;28;20037;-40
2022/01/31 01:17:36;;;;;;;30.27;5.25;;;;;;;6.04;100.00;100894.59;5072494;28;20072;-34
2022/01/31 01:20:05;;;;;;;26.73;4.82;;;;;;;6.08;100.00;100879.13;5064354;28;20412;-39
2022/01/31 01:22:33;;;;;;;33.38;4.72;;;;;;;6.13;100.00;100892.16;5071774;28;20044;-41
2022/01/31 01:25:04;;;;;;;28.35;4.68;;;;;;;6.17;100.00;100865.59;5073532;28;20049;-33
2022/01/31 01:27:32;;;;;;;23.02;4.00;;;;;;;6.16;100.00;100859.22;5072500;28;20052;-33
2022/01/31 01:30:00;;;;;;;24.70;3.97;;;;;;;6.17;100.00;100844.28;5072645;28;20041;-38
2022/01/31 01:32:34;;;;;;;24.60;4.28;;;;;;;6.18;100.00;100826.53;5072040;28;20472;-37
2022/01/31 01:35:04;;;;;;;20.35;3.80;;;;;;;6.21;100.00;100823.19;5073584;28;20124;-42
2022/01/31 01:37:32;;;;;;;21.23;3.72;;;;;;;6.25;100.00;100833.75;5072913;28;20047;-39
2022/01/31 01:40:01;;;;;;;24.50;4.43;;;;;;;6.27;100.00;100815.75;5072077;28;20109;-34
2022/01/31 01:42:29;;;;;;;22.77;4.38;;;;;;;6.30;100.00;100814.38;5071877;28;20147;-33
2022/01/31 01:44:58;;;;;;;29.65;4.18;;;;;;;6.31;100.00;100816.88;5070980;28;20056;-35
2022/01/31 01:47:30;;;;;;;23.60;4.60;;;;;;;6.35;100.00;100795.00;5071721;28;20462;-37
2022/01/31 01:49:58;;;;;;;30.38;5.22;;;;;;;6.36;100.00;100802.22;5071929;28;20497;-40
2022/01/31 01:52:26;;;;;;;26.08;4.57;;;;;;;6.37;100.00;100803.88;5067512;28;20461;-39
2022/01/31 01:54:55;;;;;;;25.98;4.00;;;;;;;6.37;100.00;100790.84;5061231;28;20045;-36
2022/01/31 01:57:24;;;;;;;23.33;4.20;;;;;;;6.38;100.00;100792.53;5070331;28;20056;-35
2022/01/31 01:59:56;;;;;;;23.40;4.53;;;;;;;6.38;100.00;100775.91;5071590;28;20053;-40
2022/01/31 02:02:43;;;;;;;29.85;4.60;;;;;;;6.41;100.00;100783.63;5072438;28;20493;-37
2022/01/31 02:05:15;;;;;;;21.98;3.72;;;;;;;6.42;100.00;100782.53;5060362;28;20052;-34
2022/01/31 02:07:44;;;;;;;25.88;4.13;;;;;;;6.45;100.00;100782.00;5071410;28;20048;-39
2022/01/31 02:10:15;;;;;;;21.67;3.85;;;;;;;6.46;100.00;100785.59;5071568;28;20052;-39
2022/01/31 02:13:05;;;;;;;29.27;4.07;;;;;;;6.47;100.00;100773.41;5071571;28;20059;-39
2022/01/31 02:15:52;;;;;;;25.65;4.32;;;;;;;6.48;100.00;100778.69;5064117;28;20053;-36
2022/01/31 02:18:53;;;;;;;24.27;4.60;;;;;;;6.50;100.00;100764.53;5060925;28;20052;-38
2022/01/31 02:21:41;;;;;;;28.98;4.00;;;;;;;6.51;100.00;100744.88;5071834;28;20520;-35
2022/01/31 02:24:28;;;;;;;25.80;4.55;;;;;;;6.50;100.00;100754.28;5072605;28;20405;-38
2022/01/31 02:27:24;;;;;;;20.35;3.53;;;;;;;6.53;100.00;100747.38;5070504;28;20049;-35
2022/01/31 02:29:52;;;;;;;18.92;3.28;;;;;;;6.53;100.00;100750.13;5070941;28;20049;-37
2022/01/31 02:32:22;;;;;;;25.65;4.53;;;;;;;6.55;100.00;100743.22;5071076;28;20098;-42
2022/01/31 02:34:54;;;;;;;22.80;3.53;;;;;;;6.55;100.00;100742.38;5071076;28;20055;-34
2022/01/31 02:37:23;;;;;;;24.25;4.57;;;;;;;6.55;100.00;100729.34;5072175;28;20059;-42
2022/01/31 02:40:00;;;;;;;23.23;3.65;;;;;;;6.57;100.00;100718.00;5070158;28;20382;-33
2022/01/31 02:42:28;;;;;;;21.58;3.50;;;;;;;6.59;100.00;100726.03;5070614;28;20391;-34
2022/01/31 02:44:56;;;;;;;21.00;3.70;;;;;;;6.59;100.00;100715.78;5070788;28;20062;-39
2022/01/31 02:47:27;;;;;;;25.65;3.72;;;;;;;6.57;100.00;100707.75;5069804;28;20559;-30
2022/01/31 02:49:59;;;;;;;20.70;4.30;;;;;;;6.58;100.00;100708.56;5070937;28;20082;-38
2022/01/31 02:52:33;;;;;;;23.55;3.10;;;;;;;6.59;100.00;100701.91;5070863;28;20076;-37
2022/01/31 02:55:03;;;;;;;23.77;3.85;;;;;;;6.58;100.00;100725.19;5059695;28;20051;-37
2022/01/31 02:57:31;;;;;;;19.95;2.92;;;;;;;6.57;100.00;100726.31;5070566;28;20087;-34
2022/01/31 03:00:00;;;;;;;21.27;4.15;;;;;;;6.57;100.00;100698.59;5070338;28;20106;-38
2022/01/31 03:02:37;;;;;;;19.33;2.78;;;;;;;6.55;100.00;100695.25;5071249;28;20048;-35
2022/01/31 03:05:05;;;;;;;24.15;3.30;;;;;;;6.57;100.00;100701.34;5070387;28;20063;-39
2022/01/31 03:07:36;;;;;;;21.50;3.35;;;;;;;6.59;100.00;100699.16;5070379;28;20055;-38
2022/01/31 03:10:04;;;;;;;21.42;3.85;;;;;;;6.59;100.00;100684.44;5069835;28;20087;-37
2022/01/31 03:12:33;;;;;;;26.25;3.20;;;;;;;6.57;100.00;100696.66;5070340;28;20520;-42
2022/01/31 03:15:03;;;;;;;20.65;3.58;;;;;;;6.56;100.00;100681.13;5069679;28;20453;-42
2022/01/31 03:17:54;;;;;;;21.35;3.25;;;;;;;6.56;100.00;100663.66;5060969;28;20481;-40
2022/01/31 03:20:23;;;;;;;25.83;3.72;;;;;;;6.56;100.00;100681.13;5066508;28;20489;-34
2022/01/31 03:22:53;;;;;;;19.20;3.40;;;;;;;6.57;100.00;100680.00;5058715;28;20048;-40
2022/01/31 03:25:21;;;;;;;23.92;3.30;;;;;;;6.58;100.00;100664.22;5071118;28;20044;-38
2022/01/31 03:27:49;;;;;;;22.83;3.88;;;;;;;6.57;100.00;100665.31;5071360;28;20526;-31
2022/01/31 03:30:20;;;;;;;20.40;3.03;;;;;;;6.55;100.00;100657.28;5069051;28;20447;-37
2022/01/31 03:32:50;;;;;;;21.00;3.72;;;;;;;6.51;100.00;100650.63;5069996;28;20052;-35
2022/01/31 03:35:18;;;;;;;19.30;3.00;;;;;;;6.52;100.00;100654.22;5071111;28;20052;-40
2022/01/31 03:37:48;;;;;;;27.25;4.03;;;;;;;6.52;100.00;100641.19;5068936;28;20048;-40
2022/01/31 03:40:22;;;;;;;25.33;3.90;;;;;;;6.53;100.00;100640.09;5070051;28;20117;-41
2022/01/31 03:42:51;;;;;;;19.63;3.85;;;;;;;6.55;100.00;100635.09;5069062;28;20078;-40
2022/01/31 03:45:22;;;;;;;26.13;3.70;;;;;;;6.57;100.00;100619.03;5069834;28;20436;-36
2022/01/31 03:48:09;;;;;;;23.35;3.47;;;;;;;6.56;100.00;100628.44;5069651;28;20051;-36
2022/01/31 03:50:38;;;;;;;28.92;4.35;;;;;;;6.56;100.00;100614.59;5068983;28;20049;-37
2022/01/31 03:53:06;;;;;;;22.45;4.10;;;;;;;6.58;100.00;100611.53;5071066;28;20149;-34
2022/01/31 03:55:36;;;;;;;22.80;4.53;;;;;;;6.59;100.00;100604.06;5069794;28;20412;-37
2022/01/31 03:58:03;;;;;;;22.70;4.43;;;;;;;6.58;100.00;100578.28;5068783;28;20131;-36
2022/01/31 04:00:43;;;;;;;28.25;4.28;;;;;;;6.57;100.00;100604.34;5069604;28;20143;-40
2022/01/31 04:03:11;;;;;;;28.65;3.72;;;;;;;6.55;100.00;100609.31;5071033;28;20052;-40
2022/01/31 04:05:39;;;;;;;22.95;3.60;;;;;;;6.41;100.00;100625.66;5070540;28;20087;-36
2022/01/31 04:08:08;;;;;;;18.77;3.28;;;;;;;6.20;100.00;100622.06;5070810;28;20574;-36
2022/01/31 04:10:37;;;;;;;26.08;3.50;;;;;;;6.09;100.00;100608.47;5071070;28;20053;-38
2022/01/31 04:13:06;;;;;;;26.85;4.07;;;;;;;6.01;100.00;100612.63;5069914;28;20109;-42
2022/01/31 04:15:33;;;;;;;24.85;3.13;;;;;;;5.96;100.00;100609.03;5071266;28;20440;-32
2022/01/31 04:18:01;;;;;;;26.55;4.10;;;;;;;5.92;100.00;100583.00;5070364;28;20044;-42
2022/01/31 04:20:29;;;;;;;32.78;4.78;;;;;;;5.90;100.00;100593.50;5070939;28;20079;-34
2022/01/31 04:23:00;;;;;;;25.50;3.60;;;;;;;5.87;100.00;100581.84;5071119;28;20051;-36
2022/01/31 04:25:30;;;;;;;27.00;3.58;;;;;;;5.84;100.00;100584.31;5070161;28;20051;-34
2022/01/31 04:28:04;;;;;;;23.65;3.22;;;;;;;5.81;100.00;100574.63;5070743;28;20110;-32
2022/01/31 04:30:35;;;;;;;32.88;4.55;;;;;;;5.79;100.00;100571.31;5071103;28;20109;-40
2022/01/31 04:33:03;;;;;;;26.65;4.00;;;;;;;5.80;100.00;100594.28;5070025;28;20082;-33
2022/01/31 04:35:31;;;;;;;24.20;3.30;;;;;;;5.78;100.00;100568.81;5070719;28;20452;-37
2022/01/31 04:37:59;;;;;;;22.42;3.53;;;;;;;5.76;100.00;100582.09;5070695;28;20044;-35
2022/01/31 04:40:27;;;;;;;24.77;3.22;;;;;;;5.74;100.00;100581.56;5070311;28;20490;-34
2022/01/31 04:42:54;;;;;;;21.10;2.72;;;;;;;5.66;100.00;100580.13;5070693;28;20444;-34
2022/01/31 04:45:23;;;;;;;21.08;2.92;;;;;;;5.61;100.00;100573.75;5072203;28;20238;-39
2022/01/31 04:47:51;;;;;;;21.83;3.50;;;;;;;5.63;100.00;100574.31;5073328;28;20052;-35
2022/01/31 04:50:19;;;;;;;29.15;4.18;;;;;;;5.60;100.00;100586.75;5074674;28;20052;-36
2022/01/31 04:52:46;;;;;;;29.83;4.55;;;;;;;5.61;100.00;100566.28;5074045;28;20074;-37
2022/01/31 04:55:14;;;;;;;26.60;3.80;;;;;;;5.64;100.00;100562.13;5073449;28;20082;-33
2022/01/31 04:57:42;;;;;;;23.60;4.35;;;;;;;5.65;100.00;100572.09;5074062;28;20123;-33
2022/01/31 05:00:11;;;;;;;26.75;3.60;;;;;;;5.66;100.00;100571.00;5071576;28;20056;-36
2022/01/31 05:02:40;;;;;;;32.28;4.05;;;;;;;5.71;100.00;100571.03;5072797;28;20052;-36
2022/01/31 05:05:08;;;;;;;24.60;3.08;;;;;;;5.71;100.00;100568.25;5072591;28;20056;-39
2022/01/31 05:07:36;;;;;;;18.85;3.45;;;;;;;5.69;100.00;100562.97;5062310;28;20052;-36
2022/01/31 05:10:04;;;;;;;31.08;4.22;;;;;;;5.66;100.00;100549.69;5072433;28;20059;-35
2022/01/31 05:12:32;;;;;;;30.02;4.15;;;;;;;5.68;100.00;100553.00;5072802;28;20059;-36
2022/01/31 05:15:00;;;;;;;26.13;3.83;;;;;;;5.65;100.00;100548.03;5072618;28;20056;-32
2022/01/31 05:17:28;;;;;;;24.20;3.45;;;;;;;5.64;100.00;100546.34;5073852;28;20102;-37
2022/01/31 05:19:57;;;;;;;30.17;3.83;;;;;;;5.66;100.00;100522.00;5074209;28;20443;-35
2022/01/31 05:22:24;;;;;;;35.05;4.70;;;;;;;5.67;100.00;100531.97;5073074;28;20513;-37
2022/01/31 05:24:52;;;;;;;28.45;4.40;;;;;;;5.70;100.00;100549.97;5073580;28;20052;-39
2022/01/31 05:27:21;;;;;;;28.80;4.45;;;;;;;5.70;100.00;100538.91;5073756;28;20040;-38
2022/01/31 05:29:48;;;;;;;32.10;4.47;;;;;;;5.73;100.00;100514.28;5072661;28;20060;-32
2022/01/31 05:32:16;;;;;;;30.75;3.97;;;;;;;5.75;100.00;100514.00;5073508;28;20049;-33
2022/01/31 05:34:44;;;;;;;27.42;4.53;;;;;;;5.75;100.00;100520.38;5073819;28;20385;-38
2022/01/31 05:37:16;;;;;;;31.85;4.70;;;;;;;5.78;100.00;100525.38;5073242;28;20056;-38
2022/01/31 05:39:45;;;;;;;30.85;4.78;;;;;;;5.78;100.00;100511.53;5073510;28;20443;-36
2022/01/31 05:42:13;;;;;;;27.80;4.72;;;;;;;5.79;100.00;100527.03;5073670;28;20094;-40
2022/01/31 05:44:42;;;;;;;37.47;4.95;;;;;;;5.79;100.00;100509.59;5072433;28;20056;-41
2022/01/31 05:47:10;;;;;;;35.53;5.00;;;;;;;5.77;100.00;100507.09;5073774;28;20405;-37
2022/01/31 05:49:38;;;;;;;31.92;4.07;;;;;;;5.76;100.00;100521.19;5072732;28;20127;-36
2022/01/31 05:52:07;;;;;;;27.42;4.63;;;;;;;5.77;100.00;100501.53;5073038;28;20489;-41
2022/01/31 05:54:39;;;;;;;29.70;4.80;;;;;;;5.79;100.00;100515.13;5073404;28;20064;-40
2022/01/31 05:57:08;;;;;;;28.38;4.68;;;;;;;5.78;100.00;100519.81;5072154;28;20060;-44
2022/01/31 05:59:39;;;;;;;30.60;5.40;;;;;;;5.80;100.00;100500.97;5073693;28;20402;-41
2022/01/31 06:02:06;;;;;;;31.95;4.32;;;;;;;5.80;100.00;100517.59;5072948;28;20151;-36
2022/01/31 06:04:34;;;;;;;26.70;4.50;;;;;;;5.81;100.00;100523.94;5072068;28;20044;-38
2022/01/31 06:07:02;;;;;;;39.35;6.45;;;;;;;5.80;100.00;100503.75;5072882;28;20052;-36
2022/01/31 06:09:32;;;;;;;35.67;4.95;;;;;;;5.80;100.00;100520.34;5072786;28;20057;-33
2022/01/31 06:12:02;;;;;;;26.20;3.92;;;;;;;5.77;100.00;100520.09;5071889;28;20044;-37
2022/01/31 06:14:31;;;;;;;45.95;5.38;;;;;;;5.72;100.00;100543.06;5072875;28;20036;-34
2022/01/31 06:16:59;;;;;;;29.35;3.90;;;;;;;5.70;100.00;100533.38;5072722;28;20048;-35
2022/01/31 06:19:27;;;;;;;29.73;4.65;;;;;;;5.66;100.00;100563.53;5071746;28;20070;-40
2022/01/31 06:21:54;;;;;;;29.73;3.80;;;;;;;5.64;100.00;100529.75;5072595;28;20055;-37
2022/01/31 06:24:22;;;;;;;22.25;3.28;;;;;;;5.59;100.00;100521.47;5072055;28;20048;-40
2022/01/31 06:26:51;;;;;;;22.25;3.45;;;;;;;5.60;100.00;100533.34;5071479;28;20417;-38
2022/01/31 06:29:26;;;;;;;28.67;3.90;;;;;;;5.59;100.00;100531.69;5069252;28;20170;-42
2022/01/31 06:32:06;;;;;;;28.48;4.13;;;;;;;5.55;100.00;100525.88;5070030;28;20065;-33
2022/01/31 06:34:34;;;;;;;31.55;4.30;;;;;;;5.53;100.00;100520.63;5071697;28;20077;-42
2022/01/31 06:37:04;;;;;;;29.13;3.58;;;;;;;5.56;100.00;100519.25;5072022;28;20059;-40
2022/01/31 06:39:32;;;;;;;24.90;4.18;;;;;;;5.57;100.00;100515.38;5071440;28;20098;-37
2022/01/31 06:42:00;;;;;;;36.13;4.55;;;;;;;5.59;100.00;100538.06;5072106;28;20045;-37
2022/01/31 06:44:29;;;;;;;35.03;5.28;;;;;;;5.60;100.00;100528.63;5072384;28;20047;-40
2022/01/31 06:46:56;;;;;;;34.50;5.50;;;;;;;5.61;100.00;100526.69;5071061;28;20908;-45
2022/01/31 06:49:24;;;;;;;33.88;4.70;;;;;;;5.59;100.00;100535.31;5071791;28;20529;-39
2022/01/31 06:51:52;;;;;;;40.20;5.47;;;;;;;5.58;100.00;100535.56;5071709;28;20395;-35
2022/01/31 06:54:20;;;;;;;39.67;6.40;;;;;;;5.60;100.00;100533.34;5071168;28;20509;-37
2022/01/31 06:56:47;;;;;;;41.25;6.15;;;;;;;5.62;100.00;100533.91;5071717;28;20052;-44
2022/01/31 06:59:15;;;;;;;39.78;5.47;;;;;;;5.64;100.00;100538.06;5070868;28;20040;-43
2022/01/31 07:01:44;;;;;;;38.03;6.03;;;;;;;5.64;100.00;100512.31;5069938;28;20048;-35
2022/01/31 07:04:12;;;;;;;36.60;5.32;;;;;;;5.66;100.00;100532.25;5070344;28;20062;-37
2022/01/31 07:06:41;;;;;;;44.13;6.13;;;;;;;5.69;100.00;100538.06;5070408;28;20044;-39
2022/01/31 07:09:08;;;;;;;47.85;6.88;;;;;;;5.72;100.00;100550.53;5069026;28;20151;-40
2022/01/31 07:11:40;;;;;;;42.42;6.10;;;;;;;5.71;100.00;100549.69;5069905;28;20055;-35
2022/01/31 07:14:24;;;;;;;41.75;4.97;;;;;;;5.66;100.00;100535.84;5069679;28;20058;-39
2022/01/31 07:16:53;;;;;;;40.63;6.35;;;;;;;5.62;100.00;100526.44;5070427;28;20504;-39
2022/01/31 07:19:23;;;;;;;41.63;6.13;;;;;;;5.62;100.00;100548.56;5068494;28;20054;-34
2022/01/31 07:21:51;;;;;;;39.85;5.60;;;;;;;5.66;100.00;100527.53;5069429;28;20048;-36
2022/01/31 07:24:22;;;;;;;52.25;7.43;;;;;;;5.69;100.00;100540.84;5069867;28;20044;-35
2022/01/31 07:26:52;;;;;;;33.57;4.93;;;;;;;5.64;100.00;100540.00;5069963;28;20056;-36
2022/01/31 07:29:21;;;;;;;44.25;6.25;;;;;;;5.62;100.00;100537.50;5068942;28;20147;-39
2022/01/31 07:31:50;;;;;;;44.63;6.28;;;;;;;5.64;100.00;100543.59;5069972;28;20058;-39
2022/01/31 07:34:20;;;;;;;44.15;7.30;;;;;;;5.66;100.00;100549.69;5058792;28;20078;-34
2022/01/31 07:36:48;;;;;;;41.33;6.20;;;;;;;5.68;100.00;100547.47;5068280;28;20140;-38
2022/01/31 07:39:17;;;;;;;48.47;6.43;;;;;;;5.71;100.00;100557.19;5068847;28;20048;-35
2022/01/31 07:41:46;;;;;;;46.88;6.93;;;;;;;5.74;100.00;100568.53;5068933;28;20147;-37
2022/01/31 07:44:15;;;;;;;49.33;7.18;;;;;;;5.76;100.00;100577.41;5068420;28;20182;-35
2022/01/31 07:46:43;;;;;;;36.17;6.07;;;;;;;5.72;100.00;100603.97;5069700;28;20053;-37
2022/01/31 07:49:11;;;;;;;42.35;6.18;;;;;;;5.70;100.00;100548.03;5068115;28;20549;-36
2022/01/31 07:51:41;;;;;;;45.22;6.70;;;;;;;5.72;100.00;100581.81;5069907;28;20141;-35
2022/01/31 07:54:09;;;;;;;45.92;7.22;;;;;;;5.73;100.00;100586.25;5068499;28;20056;-34
2022/01/31 07:56:38;;;;;;;44.72;7.25;;;;;;;5.76;100.00;100591.25;5069604;28;20048;-33
2022/01/31 07:59:06;;;;;;;51.05;7.50;;;;;;;5.79;100.00;100582.41;5069365;28;20048;-36
2022/01/31 08:01:33;;;;;;;54.35;8.85;;;;;;;5.82;100.00;100600.38;5069901;28;20051;-36
2022/01/31 08:04:01;;;;;;;49.63;6.95;;;;;;;5.83;100.00;100638.88;5069080;28;20156;-35
2022/01/31 08:06:29;;;;;;;51.67;7.10;;;;;;;5.82;100.00;100642.72;5069579;28;20171;-39
2022/01/31 08:08:58;;;;;;;36.85;5.85;;;;;;;5.81;100.00;100696.44;5069703;28;20524;-35
2022/01/31 08:11:31;;;;;;;49.78;7.20;;;;;;;5.77;100.00;100612.28;5068404;28;20053;-36
2022/01/31 08:14:05;;;;;;;39.00;6.20;;;;;;;5.74;100.00;100634.16;5066937;28;20059;-32
2022/01/31 08:16:33;;;;;;;44.00;6.32;;;;;;;5.73;100.00;100625.00;5069822;28;20195;-37
2022/01/31 08:19:02;;;;;;;43.60;6.32;;;;;;;5.71;100.00;100649.38;5066742;28;20476;-35
2022/01/31 08:21:30;;;;;;;50.47;6.93;;;;;;;5.71;100.00;100676.22;5073048;28;20084;-39
2022/01/31 08:23:59;;;;;;;54.13;7.93;;;;;;;5.73;100.00;100676.78;5073565;28;20357;-38
2022/01/31 08:26:27;;;;;;;32.22;4.63;;;;;;;5.67;100.00;100651.00;5073198;28;20056;-35
2022/01/31 08:28:57;;;;;;;39.88;6.10;;;;;;;5.66;100.00;100667.88;5073058;28;20048;-36
2022/01/31 08:31:33;;;;;;;37.60;5.78;;;;;;;5.66;100.00;100654.88;5072674;28;20051;-33
2022/01/31 08:34:21;;;;;;;40.75;6.50;;;;;;;5.65;100.00;100686.44;5073533;28;20048;-36
2022/01/31 08:36:49;;;;;;;37.65;6.50;;;;;;;5.63;100.00;100674.78;5072629;28;20048;-35
2022/01/31 08:39:21;;;;;;;45.50;6.47;;;;;;;5.62;100.00;100670.34;5072331;28;20041;-32
2022/01/31 08:41:52;;;;;;;43.45;6.20;;;;;;;5.62;100.00;100659.28;5072987;28;20048;-35
2022/01/31 08:44:23;;;;;;;46.17;7.05;;;;;;;5.63;100.00;100704.41;5071912;28;20080;-31
2022/01/31 08:46:51;;;;;;;48.40;7.57;;;;;;;5.65;100.00;100707.75;5071877;28;20045;-31
2022/01/31 08:49:19;;;;;;;44.53;6.68;;;;;;;5.68;100.00;100701.66;5070271;28;20040;-37
2022/01/31 08:51:47;;;;;;;44.30;6.97;;;;;;;5.67;100.00;100700.00;5071316;28;20520;-34
2022/01/31 08:54:16;;;;;;;38.72;5.55;;;;;;;5.69;100.00;100698.63;5071877;28;20052;-36
2022/01/31 08:56:45;;;;;;;44.92;7.55;;;;;;;5.72;100.00;100730.47;5072709;28;20127;-38
2022/01/31 08:59:18;;;;;;;44.20;6.82;;;;;;;5.76;100.00;100726.91;5073826;28;20044;-34
2022/01/31 09:01:52;;;;;;;45.70;8.10;;;;;;;5.79;100.00;100726.38;5069156;28;20052;-35
2022/01/31 09:04:33;;;;;;;52.05;8.05;;;;;;;5.80;100.00;100739.09;5074165;28;20049;-38
2022/01/31 09:07:01;;;;;;;49.03;8.48;;;;;;;5.81;100.00;100728.84;5071001;28;20044;-37
2022/01/31 09:09:30;;;;;;;46.25;7.47;;;;;;;5.80;100.00;100729.94;5073567;28;20424;-40
2022/01/31 09:12:07;;;;;;;45.75;6.90;;;;;;;5.81;100.00;100746.28;5073412;28;20123;-36
2022/01/31 09:14:35;;;;;;;40.00;7.45;;;;;;;5.81;100.00;100693.69;5062311;28;20072;-42
2022/01/31 09:17:04;;;;;;;46.92;7.40;;;;;;;5.78;100.00;100746.84;5070617;28;20044;-33
2022/01/31 09:19:32;;;;;;;47.40;6.95;;;;;;;5.80;100.00;100769.53;5074007;28;20056;-38
2022/01/31 09:22:01;;;;;;;53.58;8.45;;;;;;;5.86;100.00;100770.41;5072791;28;20124;-35
2022/01/31 09:24:30;;;;;;;50.92;7.65;;;;;;;5.88;100.00;100758.00;5073923;28;20405;-34
2022/01/31 09:26:57;;;;;;;48.10;7.85;;;;;;;5.93;100.00;100772.97;5073375;28;20053;-39
2022/01/31 09:29:26;;;;;;;57.35;8.68;;;;;;;5.96;100.00;100780.75;5071477;28;20052;-37
2022/01/31 09:31:55;;;;;;;62.78;9.90;;;;;;;5.98;100.00;100786.84;5072636;28;20420;-36
2022/01/31 09:34:23;;;;;;;54.45;8.32;;;;;;;5.97;100.00;100771.31;5073344;28;20048;-42
2022/01/31 09:36:51;;;;;;;43.85;7.18;;;;;;;5.92;100.00;100740.84;5072954;28;20055;-39
2022/01/31 09:39:19;;;;;;;51.13;6.97;;;;;;;5.93;100.00;100789.59;5073384;28;20049;-39
2022/01/31 09:41:53;;;;;;;40.28;6.70;;;;;;;5.95;100.00;100817.84;5072511;28;20052;-36
2022/01/31 09:44:27;;;;;;;43.35;7.57;;;;;;;5.93;100.00;100818.13;5073186;28;20036;-34
2022/01/31 09:47:07;;;;;;;48.50;7.18;;;;;;;5.92;100.00;100826.69;5064150;28;20084;-40
2022/01/31 09:49:35;;;;;;;45.40;6.88;;;;;;;5.90;100.00;100801.19;5072444;28;20494;-33
2022/01/31 09:52:03;;;;;;;54.22;6.65;;;;;;;5.89;100.00;100825.28;5073182;28;20398;-36
2022/01/31 09:54:31;;;;;;;47.45;6.97;;;;;;;5.86;100.00;100826.63;5072924;28;20044;-38
2022/01/31 09:56:59;;;;;;;54.28;7.38;;;;;;;5.84;100.00;100827.97;5072075;28;20075;-36
2022/01/31 09:59:27;;;;;;;45.40;7.68;;;;;;;5.81;100.00;100817.44;5073197;28;20052;-33
2022/01/31 10:01:57;;;;;;;48.00;7.20;;;;;;;5.80;100.00;100832.38;5071541;28;20070;-38
2022/01/31 10:04:30;;;;;;;36.60;6.55;;;;;;;5.81;100.00;100850.66;5071995;28;20045;-36
2022/01/31 10:06:58;;;;;;;;;;;;;;;5.74;100.00;100855.63;5073283;28;20143;-29
2022/01/31 10:09:29;;;;;;;40.70;6.63;;;;;;;5.71;100.00;100845.09;5061598;28;19958;-37
2022/01/31 10:12:06;;;;;;;39.33;6.72;;;;;;;5.73;100.00;100837.34;5071765;28;20047;-38
2022/01/31 10:17:25;;;;;;;52.60;7.10;;;;;;;5.75;100.00;100846.22;5071847;28;20040;-36
2022/01/31 10:20:08;;;;;;;48.97;6.95;;;;;;;5.76;100.00;100865.34;5072542;28;20040;-43
2022/01/31 10:22:38;;;;;;;43.08;7.03;;;;;;;5.77;100.00;100863.41;5072523;28;20040;-35
2022/01/31 10:25:09;;;;;;;40.22;6.32;;;;;;;5.74;100.00;100867.53;5071694;28;20047;-38
2022/01/31 10:27:57;;;;;;;47.80;7.72;;;;;;;5.76;100.00;100862.56;5072356;28;20032;-36
2022/01/31 10:30:27;;;;;;;58.50;9.93;;;;;;;5.77;100.00;100864.25;5072528;28;20490;-40
2022/01/31 10:32:58;;;;;;;51.13;7.65;;;;;;;5.79;100.00;100858.44;5071828;28;20110;-32
2022/01/31 10:35:29;;;;;;;51.67;8.13;;;;;;;5.82;100.00;100880.03;5072458;28;20468;-37
2022/01/31 10:38:03;;;;;;;55.85;7.85;;;;;;;5.82;100.00;100869.78;5071497;28;20047;-38
2022/01/31 10:44:01;;;;;;;56.67;8.48;;;;;;;5.85;100.00;100872.03;5071218;28;20045;-36
2022/01/31 10:50:36;;;;;;;57.80;7.88;;;;;;;5.91;100.00;100884.00;5071211;28;20048;-40
2022/01/31 10:52:09;;;;;;;39.63;6.03;;;;;;;5.88;100.00;100879.84;5071299;28;20055;-34
2022/01/31 10:54:40;;;;;;;45.85;6.68;;;;;;;5.88;100.00;100879.84;5071960;28;20041;-39
2022/01/31 10:57:15;;;;;;;44.10;7.10;;;;;;;5.92;100.00;100880.13;5071634;28;20049;-36
2022/01/31 10:59:45;;;;;;;47.17;7.72;;;;;;;5.95;100.00;100893.47;5071282;28;20050;-36
2022/01/31 11:02:17;;;;;;;53.65;8.15;;;;;;;5.97;100.00;100888.47;5071705;28;20101;-34
2022/01/31 11:04:47;;;;;;;52.22;7.30;;;;;;;6.00;100.00;100903.72;5072202;28;20048;-35
2022/01/31 11:07:17;;;;;;;55.03;7.93;;;;;;;6.03;100.00;100920.63;5071224;28;20515;-33
2022/01/31 11:09:49;;;;;;;50.58;6.88;;;;;;;6.05;100.00;100934.22;5071422;28;20163;-36
2022/01/31 11:12:19;;;;;;;60.05;10.07;;;;;;;6.12;100.00;100938.44;5071669;28;20047;-38
2022/01/31 11:14:47;;;;;;;55.03;8.18;;;;;;;6.14;100.00;100939.00;5070816;28;20044;-31
2022/01/31 11:17:17;;;;;;;47.22;7.75;;;;;;;6.13;100.00;100909.63;5071482;28;20049;-31
2022/01/31 11:19:49;;;;;;;56.28;8.77;;;;;;;6.13;100.00;100937.31;5071393;28;20049;-34
2022/01/31 11:22:27;;;;;;;57.25;8.60;;;;;;;6.16;100.00;100947.88;5071071;28;20436;-38
2022/01/31 11:25:15;;;;;;;56.25;8.95;;;;;;;6.17;100.00;100957.88;5062234;28;20080;-37
2022/01/31 11:27:51;;;;;;;48.97;6.18;;;;;;;6.15;100.00;100982.22;5070581;28;20040;-32
2022/01/31 11:30:19;;;;;;;46.25;7.22;;;;;;;6.15;100.00;100959.22;5071267;28;20048;-34
2022/01/31 11:32:48;;;;;;;44.47;6.82;;;;;;;6.17;100.00;100982.81;5071104;28;20048;-37
2022/01/31 11:35:17;;;;;;;53.88;9.15;;;;;;;6.22;100.00;100976.44;5070505;28;20046;-32
2022/01/31 11:37:45;;;;;;;54.38;8.52;;;;;;;6.25;100.00;100978.66;5071103;28;20053;-35
2022/01/31 11:40:14;;;;;;;46.97;7.93;;;;;;;6.28;100.00;100974.53;5071115;28;20036;-33